sensor_id;sensor_type;location;lat;lon;timestamp;pressure;altitude;pressure_sealevel;temperature;humidity
71735;BME280;59577;52.122;5.406;2023-02-22T00:00:41;101679.44;;;6.27;98.59
71735;BME280;59577;52.122;5.406;2023-02-22T00:03:10;101675.13;;;6.26;98.81
71735;BME280;59577;52.122;5.406;2023-02-22T00:05:37;101670.88;;;6.25;98.87
71735;BME280;59577;52.122;5.406;2023-02-22T00:08:06;101671.66;;;6.26;98.69
71735;BME280;59577;52.122;5.406;2023-02-22T00:10:34;101670.69;;;6.21;98.56
71735;BME280;59577;52.122;5.406;2023-02-22T00:13:05;101672.56;;;6.21;98.46
71735;BME280;59577;52.122;5.406;2023-02-22T00:15:33;101677.94;;;6.21;98.33
71735;BME280;59577;52.122;5.406;2023-02-22T00:18:00;101667.78;;;6.18;98.23
71735;BME280;59577;52.122;5.406;2023-02-22T00:20:27;101663.81;;;6.15;98.06
71735;BME280;59577;52.122;5.406;2023-02-22T00:22:54;101674.84;;;6.14;98.00
71735;BME280;59577;52.122;5.406;2023-02-22T00:25:23;101672.97;;;6.14;98.49
71735;BME280;59577;52.122;5.406;2023-02-22T00:27:51;101675.03;;;6.17;98.54
71735;BME280;59577;52.122;5.406;2023-02-22T00:30:24;101673.47;;;6.16;98.34
71735;BME280;59577;52.122;5.406;2023-02-22T00:32:53;101676.16;;;6.16;98.43
71735;BME280;59577;52.122;5.406;2023-02-22T00:35:26;101671.38;;;6.13;98.40
71735;BME280;59577;52.122;5.406;2023-02-22T00:37:56;101670.59;;;6.13;98.64
71735;BME280;59577;52.122;5.406;2023-02-22T00:40:29;101672.47;;;6.12;98.26
71735;BME280;59577;52.122;5.406;2023-02-22T00:43:00;101670.06;;;6.11;98.16
71735;BME280;59577;52.122;5.406;2023-02-22T00:45:29;101673.88;;;6.10;98.41
71735;BME280;59577;52.122;5.406;2023-02-22T00:47:57;101666.09;;;6.08;98.63
71735;BME280;59577;52.122;5.406;2023-02-22T00:50:29;101663.91;;;6.10;98.62
71735;BME280;59577;52.122;5.406;2023-02-22T00:52:57;101661.22;;;6.10;98.54
71735;BME280;59577;52.122;5.406;2023-02-22T00:55:27;101660.94;;;6.12;98.86
71735;BME280;59577;52.122;5.406;2023-02-22T00:57:54;101651.59;;;6.09;98.63
71735;BME280;59577;52.122;5.406;2023-02-22T01:00:25;101645.69;;;6.07;98.59
71735;BME280;59577;52.122;5.406;2023-02-22T01:03:03;101647.59;;;6.07;98.74
71735;BME280;59577;52.122;5.406;2023-02-22T01:05:32;101638.75;;;6.06;98.67
71735;BME280;59577;52.122;5.406;2023-02-22T01:08:00;101639.81;;;6.05;98.76
71735;BME280;59577;52.122;5.406;2023-02-22T01:10:28;101630.69;;;6.06;98.87
71735;BME280;59577;52.122;5.406;2023-02-22T01:12:56;101641.91;;;6.08;98.50
71735;BME280;59577;52.122;5.406;2023-02-22T01:15:25;101641.91;;;6.08;99.00
71735;BME280;59577;52.122;5.406;2023-02-22T01:17:54;101636.72;;;6.12;98.88
71735;BME280;59577;52.122;5.406;2023-02-22T01:20:21;101632.44;;;6.11;98.90
71735;BME280;59577;52.122;5.406;2023-02-22T01:22:50;101635.13;;;6.11;98.83
71735;BME280;59577;52.122;5.406;2023-02-22T01:25:22;101634.63;;;6.09;98.78
71735;BME280;59577;52.122;5.406;2023-02-22T01:27:50;101637.63;;;6.07;99.08
71735;BME280;59577;52.122;5.406;2023-02-22T01:30:22;101629.38;;;6.03;98.66
71735;BME280;59577;52.122;5.406;2023-02-22T01:32:49;101627.81;;;6.02;98.97
71735;BME280;59577;52.122;5.406;2023-02-22T01:35:21;101632.34;;;6.02;99.20
71735;BME280;59577;52.122;5.406;2023-02-22T01:37:48;101636.16;;;6.01;98.89
71735;BME280;59577;52.122;5.406;2023-02-22T01:40:27;101626.50;;;6.00;99.04
71735;BME280;59577;52.122;5.406;2023-02-22T01:42:58;101614.25;;;5.94;99.27
71735;BME280;59577;52.122;5.406;2023-02-22T01:50:28;101615.94;;;5.90;99.17
71735;BME280;59577;52.122;5.406;2023-02-22T01:52:56;101605.56;;;5.83;98.84
71735;BME280;59577;52.122;5.406;2023-02-22T01:55:24;101610.56;;;5.76;98.57
71735;BME280;59577;52.122;5.406;2023-02-22T01:58:00;101613.25;;;5.76;98.53
71735;BME280;59577;52.122;5.406;2023-02-22T02:00:27;101611.19;;;5.73;97.89
71735;BME280;59577;52.122;5.406;2023-02-22T02:02:57;101614.66;;;5.73;98.49
71735;BME280;59577;52.122;5.406;2023-02-22T02:05:26;101610.38;;;5.72;98.15
71735;BME280;59577;52.122;5.406;2023-02-22T02:07:53;101599.13;;;5.70;98.51
71735;BME280;59577;52.122;5.406;2023-02-22T02:10:19;101599.72;;;5.67;98.34
71735;BME280;59577;52.122;5.406;2023-02-22T02:12:48;101594.44;;;5.62;98.19
71735;BME280;59577;52.122;5.406;2023-02-22T02:15:23;101599.34;;;5.60;98.22
71735;BME280;59577;52.122;5.406;2023-02-22T02:17:52;101584.31;;;5.59;98.71
71735;BME280;59577;52.122;5.406;2023-02-22T02:23:43;101583.81;;;5.57;98.34
71735;BME280;59577;52.122;5.406;2023-02-22T02:35:18;101576.88;;;5.42;98.10
71735;BME280;59577;52.122;5.406;2023-02-22T02:40:42;101567.78;;;5.38;98.40
71735;BME280;59577;52.122;5.406;2023-02-22T02:43:17;101566.53;;;5.35;98.62
71735;BME280;59577;52.122;5.406;2023-02-22T02:46:03;101556.88;;;5.34;98.49
71735;BME280;59577;52.122;5.406;2023-02-22T02:48:33;101559.94;;;5.27;98.38
71735;BME280;59577;52.122;5.406;2023-02-22T02:51:02;101555.47;;;5.23;98.01
71735;BME280;59577;52.122;5.406;2023-02-22T02:53:37;101559.25;;;5.22;98.60
71735;BME280;59577;52.122;5.406;2023-02-22T02:56:04;101549.91;;;5.19;98.59
71735;BME280;59577;52.122;5.406;2023-02-22T02:58:31;101542.44;;;5.16;98.69
71735;BME280;59577;52.122;5.406;2023-02-22T03:01:00;101539.56;;;5.13;98.38
71735;BME280;59577;52.122;5.406;2023-02-22T03:06:35;101536.97;;;5.07;97.96
71735;BME280;59577;52.122;5.406;2023-02-22T03:12:17;101537.16;;;4.97;98.42
71735;BME280;59577;52.122;5.406;2023-02-22T03:14:58;101539.34;;;4.95;98.17
71735;BME280;59577;52.122;5.406;2023-02-22T03:17:46;101534.56;;;4.92;98.24
71735;BME280;59577;52.122;5.406;2023-02-22T03:23:06;101536.97;;;4.94;98.75
71735;BME280;59577;52.122;5.406;2023-02-22T03:25:42;101528.41;;;4.92;99.00
71735;BME280;59577;52.122;5.406;2023-02-22T03:28:14;101528.13;;;4.93;98.76
71735;BME280;59577;52.122;5.406;2023-02-22T03:31:09;101526.22;;;4.94;98.38
71735;BME280;59577;52.122;5.406;2023-02-22T03:33:47;101530.47;;;4.95;99.16
71735;BME280;59577;52.122;5.406;2023-02-22T03:36:20;101525.94;;;4.95;99.04
71735;BME280;59577;52.122;5.406;2023-02-22T03:38:51;101517.41;;;4.93;98.65
71735;BME280;59577;52.122;5.406;2023-02-22T03:41:23;101516.56;;;4.93;98.91
71735;BME280;59577;52.122;5.406;2023-02-22T03:44:00;101514.72;;;4.93;98.98
71735;BME280;59577;52.122;5.406;2023-02-22T03:46:30;101518.75;;;4.90;98.86
71735;BME280;59577;52.122;5.406;2023-02-22T03:49:01;101509.13;;;4.89;99.46
71735;BME280;59577;52.122;5.406;2023-02-22T03:51:30;101509.72;;;4.86;99.26
71735;BME280;59577;52.122;5.406;2023-02-22T03:53:56;101507.84;;;4.87;99.22
71735;BME280;59577;52.122;5.406;2023-02-22T03:56:27;101509.44;;;4.88;98.94
71735;BME280;59577;52.122;5.406;2023-02-22T03:59:08;101507.06;;;4.86;99.03
71735;BME280;59577;52.122;5.406;2023-02-22T04:01:36;101501.16;;;4.84;99.18
71735;BME280;59577;52.122;5.406;2023-02-22T04:04:03;101494.03;;;4.80;99.71
71735;BME280;59577;52.122;5.406;2023-02-22T04:06:30;101495.38;;;4.77;99.21
71735;BME280;59577;52.122;5.406;2023-02-22T04:08:56;101492.22;;;4.75;99.58
71735;BME280;59577;52.122;5.406;2023-02-22T04:11:23;101491.22;;;4.71;99.89
71735;BME280;59577;52.122;5.406;2023-02-22T04:13:49;101490.41;;;4.70;99.38
71735;BME280;59577;52.122;5.406;2023-02-22T04:16:16;101495.78;;;4.70;99.91
71735;BME280;59577;52.122;5.406;2023-02-22T04:18:42;101492.78;;;4.72;100.00
71735;BME280;59577;52.122;5.406;2023-02-22T04:21:09;101481.78;;;4.74;99.97
71735;BME280;59577;52.122;5.406;2023-02-22T04:23:35;101481.28;;;4.71;100.00
71735;BME280;59577;52.122;5.406;2023-02-22T04:26:02;101478.41;;;4.68;100.00
71735;BME280;59577;52.122;5.406;2023-02-22T04:28:28;101480.59;;;4.66;100.00
71735;BME280;59577;52.122;5.406;2023-02-22T04:30:55;101475.22;;;4.66;100.00
71735;BME280;59577;52.122;5.406;2023-02-22T04:33:21;101472.53;;;4.66;100.00
71735;BME280;59577;52.122;5.406;2023-02-22T04:35:48;101463.69;;;4.65;100.00
71735;BME280;59577;52.122;5.406;2023-02-22T04:38:14;101460.41;;;4.68;100.00
71735;BME280;59577;52.122;5.406;2023-02-22T04:40:41;101464.41;;;4.71;100.00
71735;BME280;59577;52.122;5.406;2023-02-22T04:43:07;101458.75;;;4.73;100.00
71735;BME280;59577;52.122;5.406;2023-02-22T04:45:34;101456.84;;;4.73;100.00
71735;BME280;59577;52.122;5.406;2023-02-22T04:48:01;101457.44;;;4.70;100.00
71735;BME280;59577;52.122;5.406;2023-02-22T04:50:27;101452.66;;;4.67;100.00
71735;BME280;59577;52.122;5.406;2023-02-22T04:52:54;101444.13;;;4.65;100.00
71735;BME280;59577;52.122;5.406;2023-02-22T04:55:21;101442.84;;;4.62;100.00
71735;BME280;59577;52.122;5.406;2023-02-22T04:57:48;101439.53;;;4.51;100.00
71735;BME280;59577;52.122;5.406;2023-02-22T05:00:16;101439.03;;;4.49;100.00
71735;BME280;59577;52.122;5.406;2023-02-22T05:02:43;101430.69;;;4.51;100.00
71735;BME280;59577;52.122;5.406;2023-02-22T05:05:15;101437.75;;;4.47;100.00
71735;BME280;59577;52.122;5.406;2023-02-22T05:07:42;101440.94;;;4.49;100.00
71735;BME280;59577;52.122;5.406;2023-02-22T05:10:35;101429.72;;;4.47;100.00
71735;BME280;59577;52.122;5.406;2023-02-22T05:13:01;101423.25;;;4.48;100.00
71735;BME280;59577;52.122;5.406;2023-02-22T05:15:29;101420.38;;;4.44;100.00
71735;BME280;59577;52.122;5.406;2023-02-22T05:17:55;101423.03;;;4.44;100.00
71735;BME280;59577;52.122;5.406;2023-02-22T05:20:28;101416.59;;;4.45;100.00
71735;BME280;59577;52.122;5.406;2023-02-22T05:22:57;101422.75;;;4.46;100.00
71735;BME280;59577;52.122;5.406;2023-02-22T05:25:28;101413.94;;;4.45;100.00
71735;BME280;59577;52.122;5.406;2023-02-22T05:27:58;101412.53;;;4.48;100.00
71735;BME280;59577;52.122;5.406;2023-02-22T05:30:29;101415.72;;;4.50;100.00
71735;BME280;59577;52.122;5.406;2023-02-22T05:32:55;101411.16;;;4.50;100.00
71735;BME280;59577;52.122;5.406;2023-02-22T05:35:22;101414.31;;;4.52;100.00
71735;BME280;59577;52.122;5.406;2023-02-22T05:37:49;101411.16;;;4.50;100.00
71735;BME280;59577;52.122;5.406;2023-02-22T05:40:23;101414.63;;;4.51;100.00
71735;BME280;59577;52.122;5.406;2023-02-22T05:42:51;101408.75;;;4.49;100.00
71735;BME280;59577;52.122;5.406;2023-02-22T05:45:20;101413.84;;;4.50;100.00
71735;BME280;59577;52.122;5.406;2023-02-22T05:47:47;101405.22;;;4.54;100.00
71735;BME280;59577;52.122;5.406;2023-02-22T05:50:15;101407.38;;;4.51;100.00
71735;BME280;59577;52.122;5.406;2023-02-22T05:52:41;101402.63;;;4.48;100.00
71735;BME280;59577;52.122;5.406;2023-02-22T05:55:09;101397.56;;;4.47;100.00
71735;BME280;59577;52.122;5.406;2023-02-22T05:57:36;101395.75;;;4.42;100.00
71735;BME280;59577;52.122;5.406;2023-02-22T06:00:04;101399.22;;;4.43;100.00
71735;BME280;59577;52.122;5.406;2023-02-22T06:02:32;101394.97;;;4.42;100.00
71735;BME280;59577;52.122;5.406;2023-02-22T06:04:59;101388.50;;;4.43;100.00
71735;BME280;59577;52.122;5.406;2023-02-22T06:07:25;101388.81;;;4.41;100.00
71735;BME280;59577;52.122;5.406;2023-02-22T06:09:52;101387.22;;;4.40;100.00
71735;BME280;59577;52.122;5.406;2023-02-22T06:12:19;101375.41;;;4.41;100.00
71735;BME280;59577;52.122;5.406;2023-02-22T06:14:45;101380.78;;;4.41;100.00
71735;BME280;59577;52.122;5.406;2023-02-22T06:17:16;101372.72;;;4.41;100.00
71735;BME280;59577;52.122;5.406;2023-02-22T06:19:45;101366.56;;;4.41;100.00
71735;BME280;59577;52.122;5.406;2023-02-22T06:22:17;101370.06;;;4.41;100.00
71735;BME280;59577;52.122;5.406;2023-02-22T06:24:44;101381.56;;;4.42;100.00
71735;BME280;59577;52.122;5.406;2023-02-22T06:27:11;101380.44;;;4.43;100.00
71735;BME280;59577;52.122;5.406;2023-02-22T06:29:37;101387.69;;;4.42;100.00
71735;BME280;59577;52.122;5.406;2023-02-22T06:32:06;101387.69;;;4.42;100.00
71735;BME280;59577;52.122;5.406;2023-02-22T06:34:33;101392.28;;;4.42;100.00
71735;BME280;59577;52.122;5.406;2023-02-22T06:36:59;101386.13;;;4.41;100.00
71735;BME280;59577;52.122;5.406;2023-02-22T06:39:26;101381.75;;;4.45;100.00
71735;BME280;59577;52.122;5.406;2023-02-22T06:42:01;101376.41;;;4.45;100.00
71735;BME280;59577;52.122;5.406;2023-02-22T06:44:28;101375.63;;;4.45;100.00
71735;BME280;59577;52.122;5.406;2023-02-22T06:46:54;101372.41;;;4.43;100.00
71735;BME280;59577;52.122;5.406;2023-02-22T06:49:21;101365.69;;;4.45;100.00
71735;BME280;59577;52.122;5.406;2023-02-22T06:51:48;101357.34;;;4.47;100.00
71735;BME280;59577;52.122;5.406;2023-02-22T06:54:14;101358.41;;;4.46;100.00
71735;BME280;59577;52.122;5.406;2023-02-22T06:56:41;101360.81;;;4.47;100.00
71735;BME280;59577;52.122;5.406;2023-02-22T06:59:07;101366.94;;;4.48;100.00
71735;BME280;59577;52.122;5.406;2023-02-22T07:01:34;101358.91;;;4.48;100.00
71735;BME280;59577;52.122;5.406;2023-02-22T07:04:01;101359.72;;;4.48;100.00
71735;BME280;59577;52.122;5.406;2023-02-22T07:06:28;101363.19;;;4.49;100.00
71735;BME280;59577;52.122;5.406;2023-02-22T07:08:54;101354.38;;;4.48;100.00
71735;BME280;59577;52.122;5.406;2023-02-22T07:11:21;101355.66;;;4.51;100.00
71735;BME280;59577;52.122;5.406;2023-02-22T07:13:47;101355.66;;;4.51;100.00
71735;BME280;59577;52.122;5.406;2023-02-22T07:16:14;101353.16;;;4.55;100.00
71735;BME280;59577;52.122;5.406;2023-02-22T07:18:40;101353.97;;;4.55;100.00
71735;BME280;59577;52.122;5.406;2023-02-22T07:21:08;101365.19;;;4.57;100.00
71735;BME280;59577;52.122;5.406;2023-02-22T07:23:36;101370.56;;;4.57;100.00
71735;BME280;59577;52.122;5.406;2023-02-22T07:26:03;101365.97;;;4.58;100.00
71735;BME280;59577;52.122;5.406;2023-02-22T07:28:30;101369.97;;;4.60;100.00
71735;BME280;59577;52.122;5.406;2023-02-22T07:30:57;101364.59;;;4.60;100.00
71735;BME280;59577;52.122;5.406;2023-02-22T07:33:24;101365.19;;;4.57;100.00
71735;BME280;59577;52.122;5.406;2023-02-22T07:35:51;101367.06;;;4.57;100.00
71735;BME280;59577;52.122;5.406;2023-02-22T07:38:18;101368.06;;;4.61;100.00
71735;BME280;59577;52.122;5.406;2023-02-22T07:40:46;101370.66;;;4.66;100.00
71735;BME280;59577;52.122;5.406;2023-02-22T07:43:22;101372.22;;;4.67;100.00
71735;BME280;59577;52.122;5.406;2023-02-22T07:45:51;101374.13;;;4.66;100.00
71735;BME280;59577;52.122;5.406;2023-02-22T07:48:19;101377.00;;;4.70;100.00
71735;BME280;59577;52.122;5.406;2023-02-22T07:50:47;101376.81;;;4.66;100.00
71735;BME280;59577;52.122;5.406;2023-02-22T07:53:17;101379.97;;;4.68;100.00
71735;BME280;59577;52.122;5.406;2023-02-22T07:55:43;101382.56;;;4.74;100.00
71735;BME280;59577;52.122;5.406;2023-02-22T07:58:15;101379.69;;;4.70;100.00
71735;BME280;59577;52.122;5.406;2023-02-22T08:00:42;101386.34;;;4.73;100.00
71735;BME280;59577;52.122;5.406;2023-02-22T08:03:12;101392.22;;;4.75;100.00
71735;BME280;59577;52.122;5.406;2023-02-22T08:05:43;101387.34;;;4.77;100.00
71735;BME280;59577;52.122;5.406;2023-02-22T08:08:13;101384.84;;;4.80;100.00
71735;BME280;59577;52.122;5.406;2023-02-22T08:10:45;101389.63;;;4.83;100.00
71735;BME280;59577;52.122;5.406;2023-02-22T08:13:12;101392.09;;;4.80;100.00
71735;BME280;59577;52.122;5.406;2023-02-22T08:15:40;101380.88;;;4.78;100.00
71735;BME280;59577;52.122;5.406;2023-02-22T08:18:10;101381.38;;;4.80;100.00
71735;BME280;59577;52.122;5.406;2023-02-22T08:20:39;101391.19;;;4.84;100.00
71735;BME280;59577;52.122;5.406;2023-02-22T08:23:06;101383.38;;;4.88;100.00
71735;BME280;59577;52.122;5.406;2023-02-22T08:25:33;101386.75;;;4.94;100.00
71735;BME280;59577;52.122;5.406;2023-02-22T08:28:03;101388.00;;;4.96;100.00
71735;BME280;59577;52.122;5.406;2023-02-22T08:30:30;101379.97;;;4.96;100.00
71735;BME280;59577;52.122;5.406;2023-02-22T08:32:58;101378.88;;;4.97;100.00
71735;BME280;59577;52.122;5.406;2023-02-22T08:35:25;101382.06;;;4.99;100.00
71735;BME280;59577;52.122;5.406;2023-02-22T08:37:55;101374.38;;;5.06;100.00
71735;BME280;59577;52.122;5.406;2023-02-22T08:40:25;101380.75;;;5.11;100.00
71735;BME280;59577;52.122;5.406;2023-02-22T08:42:53;101382.81;;;5.14;100.00
71735;BME280;59577;52.122;5.406;2023-02-22T08:45:20;101381.13;;;5.18;100.00
71735;BME280;59577;52.122;5.406;2023-02-22T08:47:46;101387.78;;;5.20;100.00
71735;BME280;59577;52.122;5.406;2023-02-22T08:50:26;101378.94;;;5.20;100.00
71735;BME280;59577;52.122;5.406;2023-02-22T08:52:55;101376.75;;;5.22;100.00
71735;BME280;59577;52.122;5.406;2023-02-22T08:55:26;101374.25;;;5.25;100.00
71735;BME280;59577;52.122;5.406;2023-02-22T08:57:53;101379.03;;;5.28;100.00
71735;BME280;59577;52.122;5.406;2023-02-22T09:00:23;101362.50;;;5.35;100.00
71735;BME280;59577;52.122;5.406;2023-02-22T09:02:54;101363.38;;;5.44;100.00
71735;BME280;59577;52.122;5.406;2023-02-22T09:05:31;101356.31;;;5.49;100.00
71735;BME280;59577;52.122;5.406;2023-02-22T09:07:59;101349.41;;;5.56;100.00
71735;BME280;59577;52.122;5.406;2023-02-22T09:10:29;101352.56;;;5.58;100.00
71735;BME280;59577;52.122;5.406;2023-02-22T09:12:57;101355.13;;;5.63;100.00
71735;BME280;59577;52.122;5.406;2023-02-22T09:15:50;101352.69;;;5.76;100.00
71735;BME280;59577;52.122;5.406;2023-02-22T09:18:16;101347.19;;;5.81;100.00
71735;BME280;59577;52.122;5.406;2023-02-22T09:20:43;101341.69;;;5.86;100.00
71735;BME280;59577;52.122;5.406;2023-02-22T09:23:11;101350.75;;;5.90;100.00
71735;BME280;59577;52.122;5.406;2023-02-22T09:25:39;101352.50;;;5.95;100.00
71735;BME280;59577;52.122;5.406;2023-02-22T09:28:06;101350.72;;;6.04;100.00
71735;BME280;59577;52.122;5.406;2023-02-22T09:30:34;101351.66;;;6.08;100.00
71735;BME280;59577;52.122;5.406;2023-02-22T09:33:07;101344.75;;;6.16;100.00
71735;BME280;59577;52.122;5.406;2023-02-22T09:35:39;101344.81;;;6.25;100.00
71735;BME280;59577;52.122;5.406;2023-02-22T09:38:15;101346.06;;;6.27;100.00
71735;BME280;59577;52.122;5.406;2023-02-22T09:40:54;101338.78;;;6.28;100.00
71735;BME280;59577;52.122;5.406;2023-02-22T09:43:48;101338.66;;;6.33;100.00
71735;BME280;59577;52.122;5.406;2023-02-22T09:49:17;101322.06;;;6.39;100.00
71735;BME280;59577;52.122;5.406;2023-02-22T09:54:24;101312.84;;;6.81;100.00
71735;BME280;59577;52.122;5.406;2023-02-22T09:57:06;101310.34;;;6.93;100.00
71735;BME280;59577;52.122;5.406;2023-02-22T09:59:39;101306.41;;;6.90;98.77
71735;BME280;59577;52.122;5.406;2023-02-22T10:02:20;101306.22;;;6.95;98.43
71735;BME280;59577;52.122;5.406;2023-02-22T10:05:02;101306.25;;;7.13;98.22
71735;BME280;59577;52.122;5.406;2023-02-22T10:07:35;101305.44;;;7.21;97.81
71735;BME280;59577;52.122;5.406;2023-02-22T10:10:04;101299.41;;;7.42;96.76
71735;BME280;59577;52.122;5.406;2023-02-22T10:26:29;101292.69;;;8.30;92.10
71735;BME280;59577;52.122;5.406;2023-02-22T10:31:31;101292.97;;;8.97;91.21
71735;BME280;59577;52.122;5.406;2023-02-22T10:34:03;101293.66;;;9.06;89.80
71735;BME280;59577;52.122;5.406;2023-02-22T10:36:31;101294.31;;;8.82;87.80
71735;BME280;59577;52.122;5.406;2023-02-22T10:39:23;101290.06;;;8.51;89.09
71735;BME280;59577;52.122;5.406;2023-02-22T10:41:56;101282.91;;;8.55;89.45
71735;BME280;59577;52.122;5.406;2023-02-22T10:44:23;101283.81;;;8.59;88.83
71735;BME280;59577;52.122;5.406;2023-02-22T10:46:51;101286.19;;;8.61;89.56
71735;BME280;59577;52.122;5.406;2023-02-22T10:49:21;101287.75;;;8.71;88.86
71735;BME280;59577;52.122;5.406;2023-02-22T10:51:59;101286.59;;;8.72;88.98
71735;BME280;59577;52.122;5.406;2023-02-22T10:54:33;101289.13;;;8.77;89.08
71735;BME280;59577;52.122;5.406;2023-02-22T10:57:02;101289.97;;;8.69;88.04
71735;BME280;59577;52.122;5.406;2023-02-22T10:59:40;101280.16;;;8.64;88.44
71735;BME280;59577;52.122;5.406;2023-02-22T11:02:28;101285.69;;;8.68;87.92
71735;BME280;59577;52.122;5.406;2023-02-22T11:04:58;101284.41;;;8.65;88.31
71735;BME280;59577;52.122;5.406;2023-02-22T11:07:28;101280.94;;;8.64;88.48
71735;BME280;59577;52.122;5.406;2023-02-22T11:10:00;101276.25;;;8.74;88.74
71735;BME280;59577;52.122;5.406;2023-02-22T11:12:33;101280.50;;;8.83;88.12
71735;BME280;59577;52.122;5.406;2023-02-22T11:15:27;101270.03;;;8.82;88.05
71735;BME280;59577;52.122;5.406;2023-02-22T11:17:56;101270.34;;;8.80;88.21
71735;BME280;59577;52.122;5.406;2023-02-22T11:20:28;101276.22;;;8.82;88.73
71735;BME280;59577;52.122;5.406;2023-02-22T11:23:02;101275.94;;;8.75;88.76
71735;BME280;59577;52.122;5.406;2023-02-22T11:25:39;101269.63;;;8.71;88.92
71735;BME280;59577;52.122;5.406;2023-02-22T11:28:13;101271.81;;;8.78;89.08
71735;BME280;59577;52.122;5.406;2023-02-22T11:30:42;101263.19;;;8.84;89.18
71735;BME280;59577;52.122;5.406;2023-02-22T11:35:56;101269.50;;;8.89;88.98
71735;BME280;59577;52.122;5.406;2023-02-22T11:38:31;101267.94;;;8.88;87.69
71735;BME280;59577;52.122;5.406;2023-02-22T11:41:12;101270.69;;;8.79;86.96
71735;BME280;59577;52.122;5.406;2023-02-22T11:43:41;101267.13;;;8.87;87.59
71735;BME280;59577;52.122;5.406;2023-02-22T11:46:12;101254.22;;;8.93;87.58
71735;BME280;59577;52.122;5.406;2023-02-22T11:48:46;101261.91;;;9.03;87.22
71735;BME280;59577;52.122;5.406;2023-02-22T11:56:51;101241.47;;;9.02;86.68
71735;BME280;59577;52.122;5.406;2023-02-22T11:59:37;101237.38;;;8.96;86.63
71735;BME280;59577;52.122;5.406;2023-02-22T12:02:39;101235.88;;;8.86;86.08
71735;BME280;59577;52.122;5.406;2023-02-22T12:11:24;101224.78;;;8.79;87.42
71735;BME280;59577;52.122;5.406;2023-02-22T12:13:59;101228.16;;;8.76;87.26
71735;BME280;59577;52.122;5.406;2023-02-22T12:16:43;101233.31;;;8.69;87.31
71735;BME280;59577;52.122;5.406;2023-02-22T12:19:28;101227.91;;;8.69;87.51
71735;BME280;59577;52.122;5.406;2023-02-22T12:21:59;101227.22;;;8.72;88.13
71735;BME280;59577;52.122;5.406;2023-02-22T12:24:41;101228.81;;;8.73;88.53
71735;BME280;59577;52.122;5.406;2023-02-22T12:27:17;101230.06;;;8.75;88.33
71735;BME280;59577;52.122;5.406;2023-02-22T12:29:49;101228.63;;;8.78;88.51
71735;BME280;59577;52.122;5.406;2023-02-22T12:32:28;101232.38;;;8.85;89.11
71735;BME280;59577;52.122;5.406;2023-02-22T12:35:05;101223.75;;;8.92;89.15
71735;BME280;59577;52.122;5.406;2023-02-22T12:38:12;101216.03;;;9.03;88.45
71735;BME280;59577;52.122;5.406;2023-02-22T12:41:05;101218.78;;;9.15;88.21
71735;BME280;59577;52.122;5.406;2023-02-22T12:43:48;101209.34;;;9.21;87.67
71735;BME280;59577;52.122;5.406;2023-02-22T12:46:31;101210.47;;;9.20;87.56
71735;BME280;59577;52.122;5.406;2023-02-22T12:55:10;101207.38;;;9.43;86.08
71735;BME280;59577;52.122;5.406;2023-02-22T12:58:05;101213.81;;;9.51;86.30
71735;BME280;59577;52.122;5.406;2023-02-22T13:01:02;101202.00;;;9.55;85.51
71735;BME280;59577;52.122;5.406;2023-02-22T13:03:38;101201.69;;;9.57;85.18
71735;BME280;59577;52.122;5.406;2023-02-22T13:06:21;101205.59;;;9.59;84.94
71735;BME280;59577;52.122;5.406;2023-02-22T13:14:43;101217.31;;;9.64;84.70
71735;BME280;59577;52.122;5.406;2023-02-22T13:17:22;101209.69;;;9.66;85.41
71735;BME280;59577;52.122;5.406;2023-02-22T13:20:16;101210.59;;;9.70;85.16
71735;BME280;59577;52.122;5.406;2023-02-22T13:25:43;101209.00;;;9.69;85.30
71735;BME280;59577;52.122;5.406;2023-02-22T13:28:23;101198.88;;;9.66;84.79
71735;BME280;59577;52.122;5.406;2023-02-22T13:31:04;101200.75;;;9.65;85.05
71735;BME280;59577;52.122;5.406;2023-02-22T13:39:07;101205.63;;;9.72;85.05
71735;BME280;59577;52.122;5.406;2023-02-22T13:47:21;101197.41;;;9.81;84.70
71735;BME280;59577;52.122;5.406;2023-02-22T13:52:48;101192.44;;;9.70;84.23
71735;BME280;59577;52.122;5.406;2023-02-22T13:55:21;101200.88;;;9.69;84.49
71735;BME280;59577;52.122;5.406;2023-02-22T13:58:02;101200.44;;;9.67;84.54
71735;BME280;59577;52.122;5.406;2023-02-22T14:00:56;101202.69;;;9.65;84.27
71735;BME280;59577;52.122;5.406;2023-02-22T14:03:36;101199.53;;;9.63;84.28
71735;BME280;59577;52.122;5.406;2023-02-22T14:06:34;101208.09;;;9.65;84.82
71735;BME280;59577;52.122;5.406;2023-02-22T14:09:12;101202.34;;;9.66;84.35
71735;BME280;59577;52.122;5.406;2023-02-22T14:11:46;101204.50;;;9.60;83.92
71735;BME280;59577;52.122;5.406;2023-02-22T14:14:14;101214.16;;;9.62;84.26
71735;BME280;59577;52.122;5.406;2023-02-22T14:16:43;101207.53;;;9.59;84.43
71735;BME280;59577;52.122;5.406;2023-02-22T14:19:19;101217.88;;;9.57;84.54
71735;BME280;59577;52.122;5.406;2023-02-22T14:22:00;101218.66;;;9.57;84.57
71735;BME280;59577;52.122;5.406;2023-02-22T14:24:29;101214.38;;;9.56;85.08
71735;BME280;59577;52.122;5.406;2023-02-22T14:27:05;101219.00;;;9.56;85.26
71735;BME280;59577;52.122;5.406;2023-02-22T14:29:32;101214.72;;;9.55;85.03
71735;BME280;59577;52.122;5.406;2023-02-22T14:32:08;101222.03;;;9.54;85.16
71735;BME280;59577;52.122;5.406;2023-02-22T14:34:42;101219.88;;;9.48;85.46
71735;BME280;59577;52.122;5.406;2023-02-22T14:37:24;101231.81;;;9.47;85.31
71735;BME280;59577;52.122;5.406;2023-02-22T14:39:57;101224.94;;;9.49;85.84
71735;BME280;59577;52.122;5.406;2023-02-22T14:42:33;101222.25;;;9.49;85.62
71735;BME280;59577;52.122;5.406;2023-02-22T14:47:49;101220.59;;;9.57;85.49
71735;BME280;59577;52.122;5.406;2023-02-22T14:50:25;101219.56;;;9.62;85.72
71735;BME280;59577;52.122;5.406;2023-02-22T14:56:00;101219.34;;;9.67;85.76
71735;BME280;59577;52.122;5.406;2023-02-22T14:58:55;101220.50;;;9.66;85.39